Time;durP1;ratioP1;P1;durP2;ratioP2;P2;SDS_P1;SDS_P2;PMS_P1;PMS_P2;Temp;Humidity;BMP_temperature;BMP_pressure;BME280_temperature;BME280_humidity;BME280_pressure;Samples;Min_cycle;Max_cycle;Signal;HPM_P1;HPM_P2
2022/08/10 00:02:28;;;;;;;2.90;2.23;;;;;;;;;;4925478;29;20190;-71
2022/08/10 00:12:30;;;;;;;2.50;2.30;;;;;;;;;;4920071;29;20237;-71
2022/08/10 00:14:56;;;;;;;2.57;2.13;;;;;;;;;;4908969;29;20221;-71
2022/08/10 00:17:21;;;;;;;2.00;1.87;;;;;;;;;;4905651;29;20201;-71
2022/08/10 00:19:46;;;;;;;4.57;2.50;;;;;;;;;;4922337;29;20176;-71
2022/08/10 00:22:11;;;;;;;2.90;2.37;;;;;;;;;;4923149;29;20185;-71
2022/08/10 00:24:37;;;;;;;3.60;2.20;;;;;;;;;;4912320;29;20514;-70
2022/08/10 00:27:02;;;;;;;2.70;2.30;;;;;;;;;;4929000;29;20207;-70
2022/08/10 00:29:27;;;;;;;2.30;2.17;;;;;;;;;;4919647;29;20187;-70
2022/08/10 00:31:53;;;;;;;2.40;2.20;;;;;;;;;;4924487;29;20220;-71
2022/08/10 00:34:18;;;;;;;2.20;2.00;;;;;;;;;;4911671;29;20231;-70
2022/08/10 00:36:43;;;;;;;2.70;2.50;;;;;;;;;;4907873;29;20289;-70
2022/08/10 00:39:08;;;;;;;2.93;2.23;;;;;;;;;;4929133;29;20269;-71
2022/08/10 00:41:34;;;;;;;4.87;2.57;;;;;;;;;;4924340;29;20220;-70
2022/08/10 00:43:59;;;;;;;2.97;2.30;;;;;;;;;;4924666;29;20267;-71
2022/08/10 00:46:24;;;;;;;3.17;2.43;;;;;;;;;;4911018;29;20190;-70
2022/08/10 00:48:49;;;;;;;2.50;2.30;;;;;;;;;;4927658;29;20186;-70
2022/08/10 00:51:14;;;;;;;3.00;2.10;;;;;;;;;;4910574;29;20229;-70
2022/08/10 00:53:40;;;;;;;2.87;2.13;;;;;;;;;;4911106;29;20266;-71
2022/08/10 00:56:05;;;;;;;2.60;2.40;;;;;;;;;;4911604;29;20193;-71
2022/08/10 00:58:31;;;;;;;2.60;2.40;;;;;;;;;;4924749;29;20304;-70
2022/08/10 01:00:56;;;;;;;3.13;2.33;;;;;;;;;;4911431;29;20216;-71
2022/08/10 01:03:21;;;;;;;2.50;2.30;;;;;;;;;;4920351;29;20214;-71
2022/08/10 01:05:58;;;;;;;3.97;2.30;;;;;;;;;;4920536;29;20197;-71
2022/08/10 01:08:56;;;;;;;2.47;2.27;;;;;;;;;;4907878;29;20243;-71
2022/08/10 01:11:27;;;;;;;3.53;3.20;;;;;;;;;;4898186;29;20234;-71
2022/08/10 01:14:07;;;;;;;3.40;2.40;;;;;;;;;;4894098;29;20217;-71
2022/08/10 01:16:44;;;;;;;3.10;2.40;;;;;;;;;;4899560;29;20189;-71
2022/08/10 01:19:28;;;;;;;2.10;2.00;;;;;;;;;;4891171;29;20198;-70
2022/08/10 01:22:16;;;;;;;2.20;2.10;;;;;;;;;;4889765;29;20221;-71
2022/08/10 01:24:59;;;;;;;3.40;2.20;;;;;;;;;;4912153;29;20181;-70
2022/08/10 01:27:28;;;;;;;2.50;2.30;;;;;;;;;;4899227;29;20194;-70
2022/08/10 01:30:01;;;;;;;3.30;2.50;;;;;;;;;;4920447;29;20177;-71
2022/08/10 01:32:36;;;;;;;3.20;2.13;;;;;;;;;;4892001;29;20227;-70
2022/08/10 01:35:05;;;;;;;3.33;2.40;;;;;;;;;;4891337;29;20611;-70
2022/08/10 01:37:33;;;;;;;2.70;2.50;;;;;;;;;;4893258;29;20238;-70
2022/08/10 01:40:00;;;;;;;2.50;2.30;;;;;;;;;;4896640;29;20212;-70
2022/08/10 01:42:26;;;;;;;3.57;2.30;;;;;;;;;;4895814;29;20197;-71
2022/08/10 01:44:53;;;;;;;2.30;2.10;;;;;;;;;;4920237;29;20185;-70
2022/08/10 01:50:16;;;;;;;3.00;2.33;;;;;;;;;;4908235;29;20224;-71
2022/08/10 01:52:43;;;;;;;2.57;2.37;;;;;;;;;;4897026;29;20205;-71
2022/08/10 01:55:10;;;;;;;2.27;2.17;;;;;;;;;;4888891;29;20317;-71
2022/08/10 01:57:36;;;;;;;4.43;2.37;;;;;;;;;;4902024;29;20716;-70
2022/08/10 02:00:02;;;;;;;3.30;2.30;;;;;;;;;;4904912;29;20284;-70
2022/08/10 02:02:28;;;;;;;3.57;2.10;;;;;;;;;;4906382;29;20267;-68
2022/08/10 02:04:54;;;;;;;2.53;2.30;;;;;;;;;;4912717;29;20187;-71
2022/08/10 02:07:26;;;;;;;2.93;2.30;;;;;;;;;;4907697;29;20240;-70
2022/08/10 02:09:52;;;;;;;2.63;2.37;;;;;;;;;;4890780;29;20205;-71
2022/08/10 02:12:19;;;;;;;2.40;2.07;;;;;;;;;;4904312;29;20294;-71
2022/08/10 02:14:46;;;;;;;3.63;2.20;;;;;;;;;;4918876;29;20188;-70
2022/08/10 02:17:13;;;;;;;2.97;2.37;;;;;;;;;;4907137;29;20196;-70
2022/08/10 02:19:40;;;;;;;2.10;1.97;;;;;;;;;;4898600;29;20263;-70
2022/08/10 02:22:07;;;;;;;2.63;2.30;;;;;;;;;;4908820;29;20607;-71
2022/08/10 02:24:32;;;;;;;2.83;2.70;;;;;;;;;;4880441;29;20191;-71
2022/08/10 02:26:58;;;;;;;2.60;2.40;;;;;;;;;;4889409;29;20192;-71
2022/08/10 02:29:24;;;;;;;12.27;2.57;;;;;;;;;;4892345;29;20192;-71
2022/08/10 02:31:49;;;;;;;3.87;2.67;;;;;;;;;;4892878;29;20196;-71
2022/08/10 02:34:16;;;;;;;3.63;2.37;;;;;;;;;;4898462;29;20286;-70
2022/08/10 02:36:43;;;;;;;2.93;2.73;;;;;;;;;;4912199;29;20219;-71
2022/08/10 02:39:10;;;;;;;2.80;2.40;;;;;;;;;;4896029;29;20555;-71
2022/08/10 02:41:43;;;;;;;2.60;2.40;;;;;;;;;;4890938;29;20271;-71
2022/08/10 02:44:12;;;;;;;2.37;2.17;;;;;;;;;;4889789;29;20217;-71
2022/08/10 02:46:49;;;;;;;2.33;2.13;;;;;;;;;;4910397;29;20191;-71
2022/08/10 02:49:21;;;;;;;3.37;2.40;;;;;;;;;;4913854;29;20245;-71
2022/08/10 02:51:55;;;;;;;2.60;2.40;;;;;;;;;;4908806;29;20196;-71
2022/08/10 02:54:23;;;;;;;3.63;2.47;;;;;;;;;;4889530;29;20339;-70
2022/08/10 02:56:57;;;;;;;4.60;2.73;;;;;;;;;;4919189;29;20178;-71
2022/08/10 02:59:30;;;;;;;2.40;2.20;;;;;;;;;;4901583;29;20194;-71
2022/08/10 03:01:58;;;;;;;5.00;2.70;;;;;;;;;;4886959;29;20201;-71
2022/08/10 03:04:27;;;;;;;2.33;2.20;;;;;;;;;;4888894;29;20254;-71
2022/08/10 03:06:54;;;;;;;3.27;2.33;;;;;;;;;;4889923;29;20243;-71
2022/08/10 03:09:21;;;;;;;2.70;2.50;;;;;;;;;;4889781;29;20211;-71
2022/08/10 03:11:47;;;;;;;3.47;2.70;;;;;;;;;;4911048;29;20331;-71
2022/08/10 03:14:13;;;;;;;2.83;2.53;;;;;;;;;;4889109;29;20279;-71
2022/08/10 03:16:40;;;;;;;2.60;2.40;;;;;;;;;;4889771;29;20247;-71
2022/08/10 03:19:06;;;;;;;4.30;2.60;;;;;;;;;;4893799;29;20182;-71
2022/08/10 03:21:31;;;;;;;3.07;2.50;;;;;;;;;;4902519;29;20402;-71
2022/08/10 03:23:57;;;;;;;2.50;2.30;;;;;;;;;;4897224;29;20192;-70
2022/08/10 03:26:23;;;;;;;3.37;2.40;;;;;;;;;;4890113;29;20234;-71
2022/08/10 03:28:48;;;;;;;3.60;2.50;;;;;;;;;;4891815;29;20179;-71
2022/08/10 03:31:13;;;;;;;2.93;2.57;;;;;;;;;;4887117;29;20543;-71
2022/08/10 03:33:42;;;;;;;5.00;2.50;;;;;;;;;;4905673;29;20453;-71
2022/08/10 03:36:08;;;;;;;7.07;2.80;;;;;;;;;;4889108;29;20180;-71
2022/08/10 03:38:33;;;;;;;3.13;2.43;;;;;;;;;;4895202;29;20485;-71
2022/08/10 03:41:02;;;;;;;2.90;2.30;;;;;;;;;;4906703;29;20211;-70
2022/08/10 03:43:27;;;;;;;4.67;3.33;;;;;;;;;;4907329;29;20187;-70
2022/08/10 03:45:54;;;;;;;4.80;2.30;;;;;;;;;;4903014;29;20190;-71
2022/08/10 03:48:20;;;;;;;2.77;2.33;;;;;;;;;;4902833;29;20198;-70
2022/08/10 03:50:45;;;;;;;3.27;3.03;;;;;;;;;;4912555;29;20194;-70
2022/08/10 03:53:11;;;;;;;3.87;2.60;;;;;;;;;;4903194;29;20222;-71
2022/08/10 03:55:36;;;;;;;6.47;2.80;;;;;;;;;;4888769;29;20253;-70
2022/08/10 03:58:02;;;;;;;4.03;3.00;;;;;;;;;;4905778;29;20191;-71
2022/08/10 04:00:33;;;;;;;3.17;2.87;;;;;;;;;;4894930;29;20182;-71
2022/08/10 04:02:58;;;;;;;3.13;2.70;;;;;;;;;;4902054;29;20533;-70
2022/08/10 04:05:24;;;;;;;2.50;2.30;;;;;;;;;;4906073;29;20190;-71
2022/08/10 04:07:49;;;;;;;6.97;2.90;;;;;;;;;;4904304;29;20213;-71
2022/08/10 04:10:14;;;;;;;6.87;2.77;;;;;;;;;;4894167;29;20215;-71
2022/08/10 04:12:39;;;;;;;6.13;3.23;;;;;;;;;;4887030;29;20241;-70
2022/08/10 04:15:05;;;;;;;5.37;3.00;;;;;;;;;;4912646;29;20245;-70
2022/08/10 04:17:30;;;;;;;4.03;2.40;;;;;;;;;;4909011;29;20244;-70
2022/08/10 04:19:56;;;;;;;2.70;2.50;;;;;;;;;;4887817;29;20192;-71
2022/08/10 04:22:23;;;;;;;2.93;2.67;;;;;;;;;;4911473;29;20194;-71
2022/08/10 04:24:51;;;;;;;2.83;2.50;;;;;;;;;;4892903;29;20186;-71
2022/08/10 04:27:17;;;;;;;7.20;3.07;;;;;;;;;;4888574;29;20191;-70
2022/08/10 04:29:43;;;;;;;2.93;2.50;;;;;;;;;;4909164;29;20182;-70
2022/08/10 04:32:09;;;;;;;4.87;2.60;;;;;;;;;;4888111;29;20200;-70
2022/08/10 04:34:36;;;;;;;3.07;2.77;;;;;;;;;;4891108;29;20269;-71
2022/08/10 04:37:03;;;;;;;3.30;2.80;;;;;;;;;;4902534;29;20184;-71
2022/08/10 04:39:29;;;;;;;3.57;2.30;;;;;;;;;;4905827;29;20549;-70
2022/08/10 04:41:54;;;;;;;4.60;2.77;;;;;;;;;;4887925;29;20197;-70
2022/08/10 04:44:19;;;;;;;3.07;2.40;;;;;;;;;;4891924;29;20194;-71
2022/08/10 04:46:44;;;;;;;2.70;2.50;;;;;;;;;;4900100;29;20225;-70
2022/08/10 04:49:10;;;;;;;3.90;3.07;;;;;;;;;;4887636;29;20191;-70
2022/08/10 04:51:35;;;;;;;3.00;2.80;;;;;;;;;;4906700;29;20179;-71
2022/08/10 04:54:00;;;;;;;2.87;2.63;;;;;;;;;;4904581;29;20210;-70
2022/08/10 04:56:25;;;;;;;3.03;2.53;;;;;;;;;;4910852;29;20186;-70
2022/08/10 04:58:51;;;;;;;3.07;2.77;;;;;;;;;;4887923;29;20197;-71
2022/08/10 05:01:16;;;;;;;3.03;2.83;;;;;;;;;;4885391;29;20198;-70
2022/08/10 05:03:41;;;;;;;3.23;2.83;;;;;;;;;;4908413;29;20278;-76
2022/08/10 05:06:06;;;;;;;2.97;2.67;;;;;;;;;;4905202;29;20185;-76
2022/08/10 05:08:31;;;;;;;4.33;2.70;;;;;;;;;;4888549;29;20440;-77
2022/08/10 05:10:57;;;;;;;2.60;2.40;;;;;;;;;;4896593;29;20778;-76
2022/08/10 05:13:22;;;;;;;6.33;2.70;;;;;;;;;;4895862;29;20209;-77
2022/08/10 05:15:50;;;;;;;8.63;3.93;;;;;;;;;;4905269;29;20232;-76
2022/08/10 05:18:15;;;;;;;3.00;2.77;;;;;;;;;;4895910;29;20260;-77
2022/08/10 05:20:41;;;;;;;3.13;2.57;;;;;;;;;;4904136;29;20486;-76
2022/08/10 05:23:06;;;;;;;3.27;2.60;;;;;;;;;;4889630;29;20278;-77
2022/08/10 05:25:31;;;;;;;3.30;3.00;;;;;;;;;;4890098;29;20214;-76
2022/08/10 05:27:56;;;;;;;2.90;2.67;;;;;;;;;;4889512;29;20197;-77
2022/08/10 05:30:22;;;;;;;4.10;2.83;;;;;;;;;;4911656;29;20353;-76
2022/08/10 05:32:47;;;;;;;3.80;3.40;;;;;;;;;;4894578;29;20213;-76
2022/08/10 05:35:13;;;;;;;4.60;3.40;;;;;;;;;;4884904;29;20193;-76
2022/08/10 05:37:39;;;;;;;3.87;3.57;;;;;;;;;;4919925;29;20187;-76
2022/08/10 05:40:05;;;;;;;4.87;4.17;;;;;;;;;;4897839;29;20194;-77
2022/08/10 05:42:30;;;;;;;5.10;3.60;;;;;;;;;;4906616;29;20189;-77
2022/08/10 05:44:56;;;;;;;4.77;4.20;;;;;;;;;;4911707;29;20190;-77
2022/08/10 05:47:22;;;;;;;4.37;3.93;;;;;;;;;;4896037;29;20186;-76
2022/08/10 05:49:47;;;;;;;5.03;4.30;;;;;;;;;;4916024;29;20231;-76
2022/08/10 05:52:13;;;;;;;4.77;3.90;;;;;;;;;;4912827;29;20577;-76
2022/08/10 05:54:39;;;;;;;4.03;3.63;;;;;;;;;;4907277;29;20210;-76
2022/08/10 05:57:04;;;;;;;3.27;3.07;;;;;;;;;;4893910;29;20217;-77
2022/08/10 05:59:32;;;;;;;7.70;4.20;;;;;;;;;;4891380;29;20233;-76
2022/08/10 06:01:58;;;;;;;3.33;3.00;;;;;;;;;;4890302;29;20184;-77
2022/08/10 06:04:28;;;;;;;3.50;3.20;;;;;;;;;;4890009;29;20390;-76
2022/08/10 06:06:53;;;;;;;3.50;3.10;;;;;;;;;;4890274;29;20210;-76
2022/08/10 06:09:19;;;;;;;3.87;3.33;;;;;;;;;;4909291;29;20237;-77
2022/08/10 06:11:46;;;;;;;3.40;3.10;;;;;;;;;;4908329;29;20293;-77
2022/08/10 06:16:56;;;;;;;3.60;3.00;;;;;;;;;;4908836;29;20196;-76
2022/08/10 06:19:22;;;;;;;3.30;3.00;;;;;;;;;;4892555;29;20181;-77
2022/08/10 06:21:47;;;;;;;3.30;3.00;;;;;;;;;;4897946;29;20219;-77
2022/08/10 06:24:16;;;;;;;4.43;2.50;;;;;;;;;;4898848;29;20191;-76
2022/08/10 06:26:41;;;;;;;3.03;2.73;;;;;;;;;;4904962;29;20204;-76
2022/08/10 06:29:08;;;;;;;5.57;2.87;;;;;;;;;;4889683;29;20262;-76
2022/08/10 06:31:43;;;;;;;4.47;2.53;;;;;;;;;;4907361;29;20195;-77
2022/08/10 06:34:10;;;;;;;2.80;2.53;;;;;;;;;;4884426;29;20216;-77
2022/08/10 06:36:36;;;;;;;3.10;2.80;;;;;;;;;;4895622;29;20175;-77
2022/08/10 06:39:01;;;;;;;3.93;2.90;;;;;;;;;;4918136;29;20187;-76
2022/08/10 06:41:28;;;;;;;2.70;2.50;;;;;;;;;;4892979;29;20188;-77
2022/08/10 06:43:57;;;;;;;3.00;2.70;;;;;;;;;;4898130;29;20444;-77
2022/08/10 06:46:23;;;;;;;6.97;3.00;;;;;;;;;;4908150;29;20318;-76
2022/08/10 06:48:50;;;;;;;2.60;2.40;;;;;;;;;;4907191;29;20311;-76
2022/08/10 06:51:23;;;;;;;3.90;2.47;;;;;;;;;;4890848;29;20187;-77
2022/08/10 06:53:53;;;;;;;2.77;2.07;;;;;;;;;;4889903;29;20232;-76
2022/08/10 06:56:19;;;;;;;3.70;2.60;;;;;;;;;;4890728;29;20489;-77
2022/08/10 06:58:48;;;;;;;8.37;2.27;;;;;;;;;;4896179;29;20209;-76
2022/08/10 07:01:14;;;;;;;4.40;2.57;;;;;;;;;;4903736;29;20298;-77
2022/08/10 07:04:00;;;;;;;4.23;2.47;;;;;;;;;;4891551;29;20648;-76
2022/08/10 07:06:26;;;;;;;2.63;2.20;;;;;;;;;;4913829;29;20228;-77
2022/08/10 07:08:51;;;;;;;2.20;2.03;;;;;;;;;;4896293;29;20242;-77
2022/08/10 07:11:18;;;;;;;3.10;2.23;;;;;;;;;;4922910;29;20236;-77
2022/08/10 07:13:43;;;;;;;3.00;2.43;;;;;;;;;;4891043;29;20215;-77
2022/08/10 07:16:10;;;;;;;2.80;2.33;;;;;;;;;;4893725;29;20260;-79
2022/08/10 07:18:37;;;;;;;3.50;2.37;;;;;;;;;;4905612;29;20227;-76
2022/08/10 07:21:04;;;;;;;2.90;2.30;;;;;;;;;;4906779;29;20178;-78
2022/08/10 07:23:29;;;;;;;11.10;2.93;;;;;;;;;;4894172;29;20580;-76
2022/08/10 07:25:56;;;;;;;2.77;2.57;;;;;;;;;;4910037;29;20235;-77
2022/08/10 07:28:22;;;;;;;4.33;2.40;;;;;;;;;;4906537;29;20274;-76
2022/08/10 07:30:49;;;;;;;2.23;2.03;;;;;;;;;;4892700;29;20344;-77
2022/08/10 07:33:17;;;;;;;4.73;2.43;;;;;;;;;;4899419;29;20256;-77
2022/08/10 07:35:42;;;;;;;3.67;2.30;;;;;;;;;;4892046;29;20195;-77
2022/08/10 07:38:09;;;;;;;5.00;2.47;;;;;;;;;;4890823;29;20189;-76
2022/08/10 07:40:35;;;;;;;3.03;2.23;;;;;;;;;;4892377;29;20174;-77
2022/08/10 07:43:01;;;;;;;4.57;2.63;;;;;;;;;;4890680;29;20220;-77
2022/08/10 07:45:27;;;;;;;2.50;1.93;;;;;;;;;;4896091;29;20194;-77
2022/08/10 07:47:52;;;;;;;2.83;2.20;;;;;;;;;;4914335;29;20557;-77
2022/08/10 07:50:19;;;;;;;3.77;2.20;;;;;;;;;;4891989;29;20194;-78
2022/08/10 07:52:45;;;;;;;3.50;2.40;;;;;;;;;;4888482;29;20485;-76
2022/08/10 07:55:13;;;;;;;4.00;2.47;;;;;;;;;;4887789;29;20216;-77
2022/08/10 07:57:39;;;;;;;2.67;2.30;;;;;;;;;;4890553;29;20174;-76
2022/08/10 08:00:06;;;;;;;2.43;2.23;;;;;;;;;;4905778;29;20183;-78
2022/08/10 08:02:38;;;;;;;3.87;2.30;;;;;;;;;;4898329;29;20185;-78
2022/08/10 08:05:07;;;;;;;2.50;2.30;;;;;;;;;;4918068;29;20648;-77
2022/08/10 08:07:33;;;;;;;4.47;2.30;;;;;;;;;;4890938;29;20184;-77
2022/08/10 08:10:00;;;;;;;3.33;2.47;;;;;;;;;;4904969;29;20259;-77
2022/08/10 08:12:26;;;;;;;4.23;2.37;;;;;;;;;;4897651;29;20219;-78
2022/08/10 08:14:51;;;;;;;2.50;2.30;;;;;;;;;;4891129;29;20185;-76
2022/08/10 08:17:17;;;;;;;5.40;2.53;;;;;;;;;;4899712;29;20209;-76
2022/08/10 08:19:45;;;;;;;3.30;2.10;;;;;;;;;;4914162;29;20310;-77
2022/08/10 08:22:11;;;;;;;2.77;2.37;;;;;;;;;;4902371;29;20177;-76
2022/08/10 08:24:36;;;;;;;2.87;2.67;;;;;;;;;;4890443;29;20248;-78
2022/08/10 08:27:02;;;;;;;3.97;2.70;;;;;;;;;;4889060;29;20687;-77
2022/08/10 08:29:30;;;;;;;4.07;2.30;;;;;;;;;;4890539;29;20435;-78
2022/08/10 08:31:55;;;;;;;6.23;2.23;;;;;;;;;;4890450;29;20194;-78
2022/08/10 08:34:23;;;;;;;2.77;2.43;;;;;;;;;;4890705;29;20235;-78
2022/08/10 08:36:49;;;;;;;5.13;2.60;;;;;;;;;;4904515;29;20195;-79
2022/08/10 08:39:15;;;;;;;2.67;2.10;;;;;;;;;;4896646;29;20193;-78
2022/08/10 08:41:46;;;;;;;5.60;2.93;;;;;;;;;;4906387;29;20241;-79
2022/08/10 08:44:30;;;;;;;4.50;2.40;;;;;;;;;;4906747;29;20197;-78
2022/08/10 08:46:55;;;;;;;2.43;1.80;;;;;;;;;;4908717;29;20193;-78
2022/08/10 08:49:39;;;;;;;2.97;2.37;;;;;;;;;;4908429;29;20347;-77
2022/08/10 08:52:25;;;;;;;2.10;2.00;;;;;;;;;;4887462;29;20183;-78
2022/08/10 08:54:50;;;;;;;3.77;2.43;;;;;;;;;;4903580;29;20297;-78
2022/08/10 08:57:15;;;;;;;2.47;2.20;;;;;;;;;;4914531;29;20284;-79
2022/08/10 08:59:40;;;;;;;4.10;2.47;;;;;;;;;;4900136;29;20185;-78
2022/08/10 09:02:05;;;;;;;2.38;2.17;;;;;;;;;;4913521;29;20190;-79
2022/08/10 09:04:43;;;;;;;2.33;2.10;;;;;;;;;;4898517;29;20436;-79
2022/08/10 09:07:11;;;;;;;2.92;2.20;;;;;;;;;;4896769;29;20177;-79
2022/08/10 09:09:54;;;;;;;2.15;1.98;;;;;;;;;;4896744;29;20261;-79
2022/08/10 09:12:38;;;;;;;2.28;1.95;;;;;;;;;;4902870;29;20226;-79
2022/08/10 09:15:06;;;;;;;2.75;2.10;;;;;;;;;;4908665;29;20401;-79
2022/08/10 09:17:31;;;;;;;2.22;1.92;;;;;;;;;;4898731;29;20179;-78
2022/08/10 09:19:56;;;;;;;10.82;2.78;;;;;;;;;;4905218;29;20277;-77
2022/08/10 09:22:25;;;;;;;6.43;2.83;;;;;;;;;;4915208;29;20230;-78
2022/08/10 09:24:57;;;;;;;2.70;2.50;;;;;;;;;;4901197;29;20424;-79
2022/08/10 09:27:31;;;;;;;4.10;2.20;;;;;;;;;;4914053;29;20217;-78
2022/08/10 09:29:59;;;;;;;2.47;2.05;;;;;;;;;;4907794;29;20190;-79
2022/08/10 09:32:34;;;;;;;2.25;1.90;;;;;;;;;;4899967;29;20179;-78
2022/08/10 09:35:12;;;;;;;4.25;2.35;;;;;;;;;;4914274;29;20411;-79
2022/08/10 09:37:45;;;;;;;6.82;2.22;;;;;;;;;;4905819;29;20267;-78
2022/08/10 09:40:14;;;;;;;4.43;2.60;;;;;;;;;;4899347;29;20525;-78
2022/08/10 09:42:42;;;;;;;3.60;2.05;;;;;;;;;;4893431;29;20206;-78
2022/08/10 09:45:31;;;;;;;3.55;2.40;;;;;;;;;;4909681;29;20183;-78
2022/08/10 09:48:06;;;;;;;7.97;2.30;;;;;;;;;;4874969;29;20196;-79
2022/08/10 09:51:03;;;;;;;4.82;2.10;;;;;;;;;;4901503;29;20167;-78
2022/08/10 09:53:38;;;;;;;2.30;1.80;;;;;;;;;;4895165;29;20214;-78
2022/08/10 09:56:13;;;;;;;4.03;2.08;;;;;;;;;;4897519;29;20219;-78
2022/08/10 09:58:48;;;;;;;2.80;2.10;;;;;;;;;;4899592;29;20234;-77
2022/08/10 10:01:21;;;;;;;2.08;1.88;;;;;;;;;;4889983;29;20174;-77
2022/08/10 10:03:46;;;;;;;4.13;2.00;;;;;;;;;;4898264;29;20253;-78
2022/08/10 10:06:15;;;;;;;3.30;2.38;;;;;;;;;;4895202;29;20194;-78
2022/08/10 10:08:46;;;;;;;2.90;2.08;;;;;;;;;;4905825;29;20206;-79
2022/08/10 10:11:16;;;;;;;2.05;1.95;;;;;;;;;;4908595;29;20225;-78
2022/08/10 10:13:41;;;;;;;2.95;2.30;;;;;;;;;;4909072;29;20207;-78
2022/08/10 10:16:13;;;;;;;3.85;2.10;;;;;;;;;;4892634;29;20203;-77
2022/08/10 10:18:42;;;;;;;3.33;2.17;;;;;;;;;;4892697;29;20266;-78
2022/08/10 10:21:08;;;;;;;4.70;2.00;;;;;;;;;;4891072;29;20285;-77
2022/08/10 10:23:45;;;;;;;6.90;1.98;;;;;;;;;;4895031;29;20285;-78
2022/08/10 10:26:23;;;;;;;2.58;2.38;;;;;;;;;;4923789;29;20448;-77
2022/08/10 10:28:51;;;;;;;3.03;2.20;;;;;;;;;;4890327;29;20178;-78
2022/08/10 10:31:28;;;;;;;2.65;2.10;;;;;;;;;;4899848;29;20194;-79
2022/08/10 10:33:57;;;;;;;3.63;1.77;;;;;;;;;;4887459;29;20202;-77
2022/08/10 10:36:22;;;;;;;4.13;2.20;;;;;;;;;;4917379;29;20182;-78
2022/08/10 10:38:48;;;;;;;3.83;2.10;;;;;;;;;;4913717;29;20186;-78
2022/08/10 10:41:27;;;;;;;3.90;2.60;;;;;;;;;;4909236;29;20198;-79
2022/08/10 10:44:05;;;;;;;6.78;1.95;;;;;;;;;;4887559;29;20189;-77
2022/08/10 10:46:37;;;;;;;2.08;1.80;;;;;;;;;;4891447;29;20171;-77
2022/08/10 10:49:21;;;;;;;5.35;2.10;;;;;;;;;;4899126;29;20205;-77
2022/08/10 10:52:06;;;;;;;2.00;1.90;;;;;;;;;;4889489;29;20275;-77
2022/08/10 10:54:40;;;;;;;3.53;1.95;;;;;;;;;;4887142;29;20209;-78
2022/08/10 10:57:24;;;;;;;1.80;1.70;;;;;;;;;;4905701;29;20182;-78
2022/08/10 11:00:04;;;;;;;4.57;2.40;;;;;;;;;;4893962;29;20295;-79
2022/08/10 11:02:31;;;;;;;3.70;2.58;;;;;;;;;;4889839;29;20179;-78
2022/08/10 11:05:15;;;;;;;5.45;2.55;;;;;;;;;;4896798;29;20253;-79
2022/08/10 11:08:02;;;;;;;6.13;2.20;;;;;;;;;;4884740;29;20182;-78
2022/08/10 11:10:50;;;;;;;3.83;1.70;;;;;;;;;;4903140;29;20193;-79
2022/08/10 11:13:37;;;;;;;2.00;1.80;;;;;;;;;;4866622;29;20250;-78
2022/08/10 11:16:26;;;;;;;1.98;1.88;;;;;;;;;;4896109;29;20171;-78
2022/08/10 11:18:51;;;;;;;2.28;2.08;;;;;;;;;;4843146;29;20195;-79
2022/08/10 11:21:19;;;;;;;2.33;1.80;;;;;;;;;;4888797;29;20190;-79
2022/08/10 11:23:45;;;;;;;2.00;1.90;;;;;;;;;;4870607;29;20430;-78
2022/08/10 11:26:24;;;;;;;6.30;2.08;;;;;;;;;;4877498;29;20195;-79
2022/08/10 11:29:06;;;;;;;4.95;2.22;;;;;;;;;;4864805;29;20199;-78
2022/08/10 11:31:38;;;;;;;2.80;1.98;;;;;;;;;;4884880;29;20187;-79
2022/08/10 11:34:22;;;;;;;4.40;2.17;;;;;;;;;;4898552;29;20199;-77
2022/08/10 11:36:48;;;;;;;4.40;1.70;;;;;;;;;;4870143;29;20246;-79
2022/08/10 11:39:22;;;;;;;1.90;1.80;;;;;;;;;;4876037;29;20237;-79
2022/08/10 11:41:51;;;;;;;4.90;2.13;;;;;;;;;;4884449;29;20509;-77
2022/08/10 11:44:20;;;;;;;3.15;1.98;;;;;;;;;;4870175;29;20198;-77
2022/08/10 11:46:55;;;;;;;2.05;1.95;;;;;;;;;;4888268;29;20196;-79
2022/08/10 11:49:20;;;;;;;3.78;1.65;;;;;;;;;;4875968;29;20190;-78
2022/08/10 11:51:56;;;;;;;3.47;1.90;;;;;;;;;;4881634;29;20180;-79
2022/08/10 11:54:29;;;;;;;5.18;2.10;;;;;;;;;;4883599;29;20461;-75
2022/08/10 11:56:56;;;;;;;3.90;2.00;;;;;;;;;;4875480;29;20191;-75
2022/08/10 12:02:08;;;;;;;4.43;2.70;;;;;;;;;;4891676;29;20279;-75
2022/08/10 12:04:34;;;;;;;3.95;2.00;;;;;;;;;;4884049;29;20194;-77
2022/08/10 12:07:03;;;;;;;1.85;1.70;;;;;;;;;;4871272;29;20190;-76
2022/08/10 12:09:29;;;;;;;5.68;2.20;;;;;;;;;;4872901;29;20292;-74
2022/08/10 12:11:56;;;;;;;3.30;2.15;;;;;;;;;;4901504;29;20320;-75
2022/08/10 12:14:34;;;;;;;2.25;1.85;;;;;;;;;;4892995;29;20221;-77
2022/08/10 12:17:02;;;;;;;2.10;1.90;;;;;;;;;;4903202;29;20273;-75
2022/08/10 12:19:27;;;;;;;2.58;1.88;;;;;;;;;;4891692;29;20219;-77
2022/08/10 12:21:58;;;;;;;3.65;2.10;;;;;;;;;;4891696;29;20277;-76
2022/08/10 12:24:42;;;;;;;1.92;1.60;;;;;;;;;;4892681;29;20235;-76
2022/08/10 12:27:11;;;;;;;4.10;2.20;;;;;;;;;;4910059;29;20280;-76
2022/08/10 12:29:45;;;;;;;2.00;1.80;;;;;;;;;;4900235;29;20392;-76
2022/08/10 12:32:29;;;;;;;1.90;1.77;;;;;;;;;;4899098;29;20191;-77
2022/08/10 12:34:55;;;;;;;3.85;1.90;;;;;;;;;;4886558;29;20436;-76
2022/08/10 12:37:46;;;;;;;4.22;1.70;;;;;;;;;;4906441;29;20190;-77
2022/08/10 12:40:17;;;;;;;2.53;2.00;;;;;;;;;;4860579;29;20187;-77
2022/08/10 12:42:46;;;;;;;2.30;2.10;;;;;;;;;;4894902;29;20174;-76
2022/08/10 12:45:31;;;;;;;4.07;2.25;;;;;;;;;;4900498;29;20233;-76
2022/08/10 12:48:03;;;;;;;16.85;14.90;;;;;;;;;;4911539;29;20411;-77
2022/08/10 12:50:32;;;;;;;4.18;1.75;;;;;;;;;;4897805;29;20409;-76
2022/08/10 12:53:02;;;;;;;5.28;2.10;;;;;;;;;;4918190;29;20264;-75
2022/08/10 12:55:29;;;;;;;2.50;2.00;;;;;;;;;;4915275;29;20197;-77
2022/08/10 12:57:56;;;;;;;1.80;1.70;;;;;;;;;;4904197;29;20253;-77
2022/08/10 13:00:32;;;;;;;3.85;2.03;;;;;;;;;;4893651;29;20417;-76
2022/08/10 13:02:59;;;;;;;2.10;1.90;;;;;;;;;;4888613;29;20190;-77
2022/08/10 13:05:25;;;;;;;4.75;1.92;;;;;;;;;;4894407;29;20267;-76
2022/08/10 13:09:07;;;;;;;4.07;1.90;;;;;;;;;;4892387;29;20204;-76
2022/08/10 13:10:43;;;;;;;2.20;2.00;;;;;;;;;;4903415;29;20237;-77
2022/08/10 13:13:13;;;;;;;2.28;1.98;;;;;;;;;;4918067;29;20206;-76
2022/08/10 13:15:38;;;;;;;2.38;1.73;;;;;;;;;;4891719;29;20182;-75
2022/08/10 13:18:04;;;;;;;2.58;1.90;;;;;;;;;;4890544;29;20393;-75
2022/08/10 13:20:34;;;;;;;4.53;2.15;;;;;;;;;;4896447;29;20273;-77
2022/08/10 13:23:01;;;;;;;2.28;2.00;;;;;;;;;;4905156;29;20199;-76
2022/08/10 13:25:36;;;;;;;2.22;2.00;;;;;;;;;;4889627;29;20269;-76
2022/08/10 13:28:05;;;;;;;5.40;2.20;;;;;;;;;;4888019;29;20253;-76
2022/08/10 13:30:30;;;;;;;3.05;1.90;;;;;;;;;;4888744;29;20183;-76
2022/08/10 13:32:56;;;;;;;2.08;1.60;;;;;;;;;;4897805;29;20211;-77
2022/08/10 13:35:21;;;;;;;3.05;2.00;;;;;;;;;;4891537;29;20233;-77
2022/08/10 13:37:47;;;;;;;3.40;2.10;;;;;;;;;;4898033;29;20210;-75
2022/08/10 13:40:14;;;;;;;2.55;1.80;;;;;;;;;;4887863;29;20234;-76
2022/08/10 13:42:40;;;;;;;2.10;1.90;;;;;;;;;;4888115;29;20183;-77
2022/08/10 13:45:05;;;;;;;4.13;2.00;;;;;;;;;;4890960;29;20234;-76
2022/08/10 13:47:32;;;;;;;5.27;2.10;;;;;;;;;;4904839;29;20193;-76
2022/08/10 13:50:00;;;;;;;3.83;1.90;;;;;;;;;;4901534;29;20429;-75
2022/08/10 13:52:27;;;;;;;3.00;1.80;;;;;;;;;;4886746;29;20182;-76
2022/08/10 13:54:54;;;;;;;3.47;2.17;;;;;;;;;;4886540;29;20210;-75
2022/08/10 13:57:24;;;;;;;4.10;1.90;;;;;;;;;;4889422;29;20198;-76
2022/08/10 13:59:51;;;;;;;2.35;2.05;;;;;;;;;;4901937;29;20183;-75
2022/08/10 14:02:21;;;;;;;4.25;2.03;;;;;;;;;;4897496;29;20210;-76
2022/08/10 14:04:46;;;;;;;2.45;2.20;;;;;;;;;;4896676;29;20187;-76
2022/08/10 14:07:13;;;;;;;4.93;1.98;;;;;;;;;;4904255;29;20175;-76
2022/08/10 14:09:42;;;;;;;2.20;1.98;;;;;;;;;;4883926;29;20234;-75
2022/08/10 14:12:09;;;;;;;2.00;1.70;;;;;;;;;;4896210;29;20223;-76
2022/08/10 14:14:34;;;;;;;1.92;1.83;;;;;;;;;;4883007;29;20549;-76
2022/08/10 14:17:00;;;;;;;2.00;1.80;;;;;;;;;;4883296;29;20190;-76
2022/08/10 14:19:27;;;;;;;3.72;2.00;;;;;;;;;;4887740;29;20254;-76
2022/08/10 14:21:53;;;;;;;3.92;2.10;;;;;;;;;;4886479;29;20183;-76
2022/08/10 14:24:25;;;;;;;2.53;2.33;;;;;;;;;;4881114;29;20201;-75
2022/08/10 14:26:55;;;;;;;4.35;1.90;;;;;;;;;;4886816;29;20187;-75
2022/08/10 14:29:22;;;;;;;3.47;2.10;;;;;;;;;;4884145;29;20192;-75
2022/08/10 14:31:48;;;;;;;3.63;2.10;;;;;;;;;;4887796;29;20207;-76
2022/08/10 14:34:13;;;;;;;2.85;1.80;;;;;;;;;;4904170;29;20242;-76
2022/08/10 14:36:57;;;;;;;2.67;2.08;;;;;;;;;;4887868;29;20352;-75
2022/08/10 14:39:29;;;;;;;2.33;2.13;;;;;;;;;;4888630;29;20172;-74
2022/08/10 14:41:56;;;;;;;2.78;1.90;;;;;;;;;;4883482;29;20220;-75
2022/08/10 14:44:23;;;;;;;2.90;1.83;;;;;;;;;;4885606;29;20183;-75
2022/08/10 14:46:56;;;;;;;1.90;1.80;;;;;;;;;;4893524;29;20196;-76
2022/08/10 14:49:23;;;;;;;2.28;1.50;;;;;;;;;;4891846;29;20187;-76
2022/08/10 14:51:48;;;;;;;2.72;1.88;;;;;;;;;;4898836;29;20215;-76
2022/08/10 14:54:16;;;;;;;3.80;1.88;;;;;;;;;;4883764;29;20263;-76
2022/08/10 14:56:42;;;;;;;2.35;2.13;;;;;;;;;;4889923;29;20182;-75
2022/08/10 14:59:09;;;;;;;3.17;1.50;;;;;;;;;;4894367;29;20196;-75
2022/08/10 15:01:36;;;;;;;2.05;1.77;;;;;;;;;;4885606;29;20241;-75
2022/08/10 15:04:04;;;;;;;4.45;2.00;;;;;;;;;;4886248;29;20269;-74
2022/08/10 15:06:36;;;;;;;2.92;1.80;;;;;;;;;;4885644;29;20457;-76
2022/08/10 15:09:03;;;;;;;2.38;1.70;;;;;;;;;;4904594;29;20207;-75
2022/08/10 15:11:30;;;;;;;2.75;1.90;;;;;;;;;;4900954;29;20232;-76